createdAt,value
2023-05-24T00:00:43.436Z,23.10
2023-05-24T00:03:30.933Z,25.90
2023-05-24T00:05:58.179Z,26.25
2023-05-24T00:08:24.991Z,23.10
2023-05-24T00:10:52.250Z,22.30
2023-05-24T00:13:19.206Z,25.13
2023-05-24T00:15:46.442Z,28.80
2023-05-24T00:18:13.217Z,25.58
2023-05-24T00:20:40.693Z,21.60
2023-05-24T00:23:07.937Z,20.17
2023-05-24T00:25:35.395Z,23.25
2023-05-24T00:28:02.157Z,21.30
2023-05-24T00:30:29.163Z,23.80
2023-05-24T00:32:56.044Z,23.55
2023-05-24T00:35:23.636Z,23.85
2023-05-24T00:37:50.727Z,24.60
2023-05-24T00:40:17.801Z,21.27
2023-05-24T00:42:44.619Z,18.58
2023-05-24T00:45:11.784Z,20.95
2023-05-24T00:47:38.584Z,23.48
2023-05-24T00:50:07.812Z,26.33
2023-05-24T00:52:36.712Z,21.50
2023-05-24T00:55:04.149Z,23.95
2023-05-24T00:57:31.248Z,22.15
2023-05-24T00:59:59.640Z,28.52
2023-05-24T01:02:27.555Z,22.33
2023-05-24T01:04:56.183Z,25.67
2023-05-24T01:07:26.930Z,22.58
2023-05-24T01:10:11.008Z,24.50
2023-05-24T01:12:56.398Z,24.85
2023-05-24T01:15:52.252Z,28.38
2023-05-24T01:18:40.872Z,20.55
2023-05-24T01:21:32.608Z,21.48
2023-05-24T01:24:18.112Z,20.25
2023-05-24T01:27:07.306Z,23.48
2023-05-24T01:29:36.238Z,21.42
2023-05-24T01:32:03.867Z,20.27
2023-05-24T01:34:30.787Z,20.50
2023-05-24T01:36:57.944Z,22.55
2023-05-24T01:39:29.148Z,22.23
2023-05-24T01:42:24.704Z,20.63
2023-05-24T01:45:06.233Z,19.75
2023-05-24T01:47:50.992Z,20.25
2023-05-24T01:50:31.466Z,19.85
2023-05-24T01:53:03.818Z,20.27
2023-05-24T01:55:32.867Z,21.98
2023-05-24T01:58:02.957Z,21.75
2023-05-24T02:00:31.554Z,20.55
2023-05-24T02:02:59.239Z,22.70
2023-05-24T02:05:26.102Z,18.67
2023-05-24T02:07:53.260Z,16.77
2023-05-24T02:10:20.068Z,17.17
2023-05-24T02:12:47.180Z,17.52
2023-05-24T02:15:14.947Z,18.13
2023-05-24T02:17:43.028Z,23.17
2023-05-24T02:20:10.955Z,19.58
2023-05-24T02:22:39.148Z,25.08
2023-05-24T02:25:06.549Z,20.25
2023-05-24T02:27:33.782Z,16.45
2023-05-24T02:30:00.677Z,20.27
2023-05-24T02:32:27.742Z,18.02
2023-05-24T02:34:54.519Z,16.42
2023-05-24T02:37:21.790Z,15.27
2023-05-24T02:39:48.618Z,16.52
2023-05-24T02:42:15.735Z,16.50
2023-05-24T02:44:48.991Z,17.38
2023-05-24T02:47:16.185Z,19.02
2023-05-24T02:49:42.928Z,16.17
2023-05-24T02:52:10.244Z,16.45
2023-05-24T02:54:37.165Z,17.17
2023-05-24T02:57:06.565Z,19.95
2023-05-24T02:59:34.079Z,17.75
2023-05-24T03:02:01.416Z,14.35
2023-05-24T03:04:28.401Z,16.75
2023-05-24T03:06:55.665Z,15.50
2023-05-24T03:09:22.426Z,18.02
2023-05-24T03:11:49.676Z,18.38
2023-05-24T03:14:17.429Z,16.60
2023-05-24T03:16:44.566Z,17.17
2023-05-24T03:19:11.443Z,17.40
2023-05-24T03:21:38.510Z,17.65
2023-05-24T03:24:05.718Z,18.20
2023-05-24T03:26:33.079Z,16.35
2023-05-24T03:28:59.825Z,14.10
2023-05-24T03:31:33.644Z,15.50
2023-05-24T03:34:01.082Z,18.00
2023-05-24T03:36:29.346Z,13.88
2023-05-24T03:38:58.371Z,13.48
2023-05-24T03:41:27.648Z,20.30
2023-05-24T03:43:58.438Z,16.00
2023-05-24T03:46:27.424Z,11.63
2023-05-24T03:48:55.266Z,14.50
2023-05-24T03:51:29.427Z,20.30
2023-05-24T03:53:57.278Z,15.68
2023-05-24T03:56:29.081Z,19.80
2023-05-24T03:58:57.827Z,13.80
2023-05-24T04:01:33.371Z,13.48
2023-05-24T04:04:02.094Z,12.70
2023-05-24T04:06:29.905Z,15.43
2023-05-24T04:08:59.880Z,20.38
2023-05-24T04:11:28.483Z,19.17
2023-05-24T04:14:00.705Z,19.52
2023-05-24T04:16:29.097Z,13.63
2023-05-24T04:18:57.474Z,13.73
2023-05-24T04:21:24.725Z,12.70
2023-05-24T04:23:52.770Z,13.85
2023-05-24T04:26:21.257Z,15.48
2023-05-24T04:28:48.656Z,19.45
2023-05-24T04:31:16.516Z,20.67
2023-05-24T04:33:43.516Z,15.00
2023-05-24T04:36:11.649Z,18.30
2023-05-24T04:38:40.860Z,17.80
2023-05-24T04:41:08.039Z,19.73
2023-05-24T04:43:35.026Z,17.92
2023-05-24T04:46:02.275Z,16.77
2023-05-24T04:48:29.461Z,20.65
2023-05-24T04:50:58.416Z,29.80
2023-05-24T04:53:25.712Z,19.80
2023-05-24T04:55:53.303Z,21.05
2023-05-24T04:58:20.167Z,21.00
2023-05-24T05:00:47.297Z,20.15
2023-05-24T05:03:14.214Z,20.13
2023-05-24T05:05:41.400Z,21.30
2023-05-24T05:08:08.175Z,19.50
2023-05-24T05:10:36.103Z,18.65
2023-05-24T05:13:03.325Z,24.77
2023-05-24T05:15:30.765Z,17.02
2023-05-24T05:17:57.583Z,19.20
2023-05-24T05:20:25.020Z,17.95
2023-05-24T05:22:51.926Z,20.02
2023-05-24T05:25:19.097Z,20.00
2023-05-24T05:27:45.833Z,21.30
2023-05-24T05:30:13.397Z,22.77
2023-05-24T05:32:40.281Z,21.85
2023-05-24T05:35:08.092Z,21.45
2023-05-24T05:37:34.909Z,21.33
2023-05-24T05:40:01.959Z,24.65
2023-05-24T05:42:28.830Z,23.15
2023-05-24T05:44:56.066Z,22.60
2023-05-24T05:47:22.918Z,24.90
2023-05-24T05:49:49.960Z,27.80
2023-05-24T05:52:16.760Z,25.27
2023-05-24T05:54:43.776Z,28.48
2023-05-24T05:57:11.701Z,26.33
2023-05-24T05:59:38.888Z,26.48
2023-05-24T06:02:07.137Z,26.85
2023-05-24T06:04:34.789Z,24.67
2023-05-24T06:07:01.750Z,29.45
2023-05-24T06:09:28.783Z,32.45
2023-05-24T06:11:55.615Z,30.50
2023-05-24T06:14:25.047Z,27.30
2023-05-24T06:16:52.379Z,31.10
2023-05-24T06:19:19.494Z,32.53
2023-05-24T06:21:48.414Z,30.38
2023-05-24T06:24:22.253Z,29.98
2023-05-24T06:26:51.538Z,31.38
2023-05-24T06:29:22.581Z,29.98
2023-05-24T06:31:49.938Z,31.77
2023-05-24T06:34:18.928Z,30.95
2023-05-24T06:36:47.799Z,28.73
2023-05-24T06:39:16.171Z,32.78
2023-05-24T06:41:44.516Z,37.13
2023-05-24T06:44:11.660Z,30.70
2023-05-24T06:46:39.698Z,29.27
2023-05-24T06:49:07.070Z,28.13
2023-05-24T06:51:34.178Z,28.05
2023-05-24T06:54:01.599Z,34.63
2023-05-24T06:56:28.998Z,29.25
2023-05-24T06:58:56.770Z,28.88
2023-05-24T07:01:23.626Z,28.05
2023-05-24T07:03:50.869Z,27.50
2023-05-24T07:06:18.422Z,26.48
2023-05-24T07:08:45.497Z,24.33
2023-05-24T07:11:12.401Z,27.13
2023-05-24T07:13:40.683Z,25.48
2023-05-24T07:16:07.494Z,25.17
2023-05-24T07:18:34.532Z,25.45
2023-05-24T07:21:01.432Z,21.77
2023-05-24T07:23:28.591Z,20.85
2023-05-24T07:25:55.390Z,25.88
2023-05-24T07:28:22.475Z,24.13
2023-05-24T07:30:49.597Z,20.17
2023-05-24T07:33:17.058Z,22.42
2023-05-24T07:35:45.843Z,20.02
2023-05-24T07:38:13.096Z,21.38
2023-05-24T07:40:40.013Z,24.63
2023-05-24T07:43:07.359Z,20.60
2023-05-24T07:45:34.213Z,20.05
2023-05-24T07:48:01.918Z,19.02
2023-05-24T07:50:29.428Z,18.70
2023-05-24T07:52:59.385Z,18.45
2023-05-24T07:55:27.943Z,19.42
2023-05-24T07:57:55.085Z,24.15
2023-05-24T08:00:23.105Z,18.90
2023-05-24T08:02:50.400Z,18.50
2023-05-24T08:05:18.233Z,19.00
2023-05-24T08:07:45.713Z,19.35
2023-05-24T08:10:13.575Z,15.45
2023-05-24T08:12:41.503Z,24.77
2023-05-24T08:15:08.808Z,14.70
2023-05-24T08:17:36.023Z,14.63
2023-05-24T08:20:06.619Z,17.02
2023-05-24T08:22:33.921Z,17.95
2023-05-24T08:25:00.844Z,16.95
2023-05-24T08:27:30.478Z,17.52
2023-05-24T08:29:57.333Z,17.73
2023-05-24T08:32:24.870Z,17.67
2023-05-24T08:34:57.972Z,14.85
2023-05-24T08:37:32.574Z,15.65
2023-05-24T08:39:59.451Z,15.45
2023-05-24T08:42:28.758Z,14.18
2023-05-24T08:45:03.573Z,14.98
2023-05-24T08:47:31.226Z,15.93
2023-05-24T08:49:58.568Z,14.13
2023-05-24T08:52:27.811Z,17.08
2023-05-24T08:54:55.337Z,14.00
2023-05-24T08:57:22.654Z,14.82
2023-05-24T08:59:49.587Z,14.07
2023-05-24T09:02:17.636Z,14.20
2023-05-24T09:04:48.636Z,14.93
2023-05-24T09:07:18.792Z,13.40
2023-05-24T09:09:55.432Z,11.57
2023-05-24T09:12:36.266Z,15.07
2023-05-24T09:15:05.862Z,14.48
2023-05-24T09:17:35.168Z,15.38
2023-05-24T09:20:02.778Z,19.77
2023-05-24T09:22:30.924Z,13.65
2023-05-24T09:25:02.378Z,15.30
2023-05-24T09:27:32.314Z,14.18
2023-05-24T09:29:59.075Z,14.05
2023-05-24T09:32:26.217Z,16.73
2023-05-24T09:34:56.570Z,13.18
2023-05-24T09:37:29.916Z,15.10
2023-05-24T09:39:58.909Z,13.90
2023-05-24T09:42:30.395Z,13.90
2023-05-24T09:45:09.096Z,13.85
2023-05-24T09:47:38.148Z,16.80
2023-05-24T09:50:12.888Z,13.65
2023-05-24T09:52:41.124Z,15.88
2023-05-24T09:55:15.474Z,14.00
2023-05-24T09:57:50.691Z,14.18
2023-05-24T10:00:27.150Z,15.18
2023-05-24T10:03:08.743Z,14.85
2023-05-24T10:05:36.492Z,11.82
2023-05-24T10:08:08.956Z,13.30
2023-05-24T10:10:37.031Z,14.30
2023-05-24T10:13:04.775Z,13.98
2023-05-24T10:15:31.556Z,12.48
2023-05-24T10:18:02.661Z,16.35
2023-05-24T10:20:30.079Z,10.73
2023-05-24T10:23:02.158Z,24.38
2023-05-24T10:25:30.025Z,12.02
2023-05-24T10:28:01.391Z,12.20
2023-05-24T10:30:44.452Z,11.25
2023-05-24T10:33:14.116Z,13.55
2023-05-24T10:35:42.652Z,14.07
2023-05-24T10:38:09.817Z,14.60
2023-05-24T10:40:41.708Z,11.68
2023-05-24T10:43:10.336Z,10.57
2023-05-24T10:45:39.341Z,12.52
2023-05-24T10:48:12.906Z,16.20
2023-05-24T10:50:41.151Z,12.73
2023-05-24T10:53:12.610Z,14.23
2023-05-24T10:55:59.711Z,14.23
2023-05-24T10:58:59.642Z,13.73
2023-05-24T11:01:32.033Z,15.30
2023-05-24T11:04:10.545Z,14.45
2023-05-24T11:06:55.586Z,12.30
2023-05-24T11:09:23.953Z,16.77
2023-05-24T11:11:56.118Z,12.13
2023-05-24T11:14:27.414Z,15.15
2023-05-24T11:16:55.203Z,13.63
2023-05-24T11:19:25.457Z,12.60
2023-05-24T11:21:58.702Z,11.70
2023-05-24T11:24:27.418Z,9.65
2023-05-24T11:26:54.225Z,11.60
2023-05-24T11:29:22.493Z,11.32
2023-05-24T11:32:06.307Z,11.77
2023-05-24T11:34:34.351Z,11.85
2023-05-24T11:37:02.687Z,11.07
2023-05-24T11:39:34.459Z,13.80
2023-05-24T11:42:04.849Z,13.98
2023-05-24T11:44:33.419Z,12.80
2023-05-24T11:47:01.244Z,11.40
2023-05-24T11:49:28.583Z,13.40
2023-05-24T11:51:57.128Z,11.27
2023-05-24T11:54:25.163Z,10.45
2023-05-24T11:56:53.496Z,9.13
2023-05-24T11:59:29.252Z,11.25
2023-05-24T12:02:02.690Z,13.38
2023-05-24T12:04:30.745Z,14.00
2023-05-24T12:06:58.406Z,15.30
2023-05-24T12:09:25.796Z,10.75
2023-05-24T12:11:53.600Z,10.85
2023-05-24T12:14:31.099Z,9.02
2023-05-24T12:16:58.816Z,13.13
2023-05-24T12:19:33.653Z,12.30
2023-05-24T12:22:06.721Z,10.98
2023-05-24T12:24:34.304Z,9.77
2023-05-24T12:27:03.572Z,7.22
2023-05-24T12:29:39.826Z,11.35
2023-05-24T12:32:12.809Z,12.48
2023-05-24T12:34:42.708Z,14.55
2023-05-24T12:37:12.151Z,9.70
2023-05-24T12:39:39.805Z,9.00
2023-05-24T12:42:06.912Z,14.55
2023-05-24T12:44:35.883Z,16.42
2023-05-24T12:47:04.473Z,13.25
2023-05-24T12:49:32.184Z,7.47
2023-05-24T12:51:59.416Z,12.63
2023-05-24T12:54:27.909Z,14.30
2023-05-24T12:56:56.936Z,15.32
2023-05-24T12:59:25.973Z,13.95
2023-05-24T13:01:53.156Z,10.32
2023-05-24T13:04:23.243Z,13.30
2023-05-24T13:06:50.365Z,11.07
2023-05-24T13:09:22.400Z,10.70
2023-05-24T13:11:49.587Z,13.25
2023-05-24T13:14:17.202Z,10.35
2023-05-24T13:16:44.369Z,10.13
2023-05-24T13:19:12.442Z,10.13
2023-05-24T13:21:39.479Z,11.93
2023-05-24T13:24:07.649Z,10.25
2023-05-24T13:26:37.397Z,18.00
2023-05-24T13:31:37.855Z,9.82
2023-05-24T13:34:06.222Z,12.35
2023-05-24T13:36:33.664Z,13.00
2023-05-24T13:41:30.911Z,9.98
2023-05-24T13:43:58.055Z,13.55
2023-05-24T13:46:24.887Z,11.63
2023-05-24T13:48:52.313Z,10.70
2023-05-24T13:51:20.029Z,11.98
2023-05-24T13:53:50.002Z,14.70
2023-05-24T13:56:16.938Z,10.85
2023-05-24T13:58:44.455Z,11.48
2023-05-24T14:01:11.469Z,19.55
2023-05-24T14:03:40.960Z,11.77
2023-05-24T14:06:08.907Z,19.33
2023-05-24T14:08:36.163Z,11.18
2023-05-24T14:11:02.977Z,11.25
2023-05-24T14:16:00.130Z,11.38
2023-05-24T14:18:27.332Z,10.70
2023-05-24T14:20:54.095Z,10.65
2023-05-24T14:23:21.392Z,9.48
2023-05-24T14:25:48.306Z,12.02
2023-05-24T14:28:15.313Z,17.50
2023-05-24T14:30:42.340Z,13.10
2023-05-24T14:33:11.518Z,11.93
2023-05-24T14:35:39.775Z,12.60
2023-05-24T14:38:09.278Z,13.55
2023-05-24T14:40:37.765Z,12.50
2023-05-24T14:43:06.193Z,12.30
2023-05-24T14:45:33.467Z,15.90
2023-05-24T14:48:00.990Z,13.18
2023-05-24T14:50:28.033Z,13.05
2023-05-24T14:52:55.735Z,14.23
2023-05-24T14:55:22.944Z,17.60
2023-05-24T14:57:50.411Z,13.65
2023-05-24T15:00:21.490Z,21.17
2023-05-24T15:02:49.865Z,12.45
2023-05-24T15:05:16.856Z,15.65
2023-05-24T15:07:43.924Z,18.08
2023-05-24T15:10:11.072Z,15.68
2023-05-24T15:12:38.187Z,13.63
2023-05-24T15:15:06.768Z,12.93
2023-05-24T15:17:33.892Z,13.98
2023-05-24T15:20:01.090Z,12.30
2023-05-24T15:22:28.239Z,12.80
2023-05-24T15:24:55.341Z,12.10
2023-05-24T15:27:22.496Z,16.67
2023-05-24T15:29:49.350Z,19.55
2023-05-24T15:32:16.473Z,16.35
2023-05-24T15:34:43.236Z,16.98
2023-05-24T15:37:10.489Z,18.30
2023-05-24T15:39:37.511Z,18.83
2023-05-24T15:42:04.651Z,15.70
2023-05-24T15:44:32.480Z,18.08
2023-05-24T15:46:59.651Z,14.95
2023-05-24T15:49:26.465Z,13.10
2023-05-24T15:54:23.228Z,17.65
2023-05-24T15:56:50.318Z,16.55
2023-05-24T15:59:17.571Z,15.20
2023-05-24T16:01:45.760Z,20.92
2023-05-24T16:04:12.979Z,16.67
2023-05-24T16:06:40.090Z,12.75
2023-05-24T16:09:08.104Z,16.73
2023-05-24T16:11:35.756Z,24.30
2023-05-24T16:14:03.628Z,16.42
2023-05-24T16:16:30.888Z,16.40
2023-05-24T16:18:57.828Z,19.73
2023-05-24T16:21:24.958Z,17.70
2023-05-24T16:23:51.823Z,16.52
2023-05-24T16:26:18.870Z,18.33
2023-05-24T16:28:45.711Z,20.05
2023-05-24T16:31:12.774Z,17.58
2023-05-24T16:33:39.885Z,23.83
2023-05-24T16:36:07.576Z,17.83
2023-05-24T16:38:34.401Z,16.92
2023-05-24T16:41:01.473Z,14.98
2023-05-24T16:43:28.315Z,16.83
2023-05-24T16:45:56.093Z,19.10
2023-05-24T16:48:28.100Z,20.42
2023-05-24T16:50:56.741Z,19.13
2023-05-24T16:53:26.082Z,20.08
2023-05-24T16:55:54.741Z,15.63
2023-05-24T16:58:29.773Z,21.77
2023-05-24T17:00:56.867Z,18.30
2023-05-24T17:03:28.620Z,19.58
2023-05-24T17:06:01.096Z,19.05
2023-05-24T17:08:33.195Z,20.33
2023-05-24T17:11:00.250Z,20.98
2023-05-24T17:13:30.085Z,19.35
2023-05-24T17:15:57.710Z,24.70
2023-05-24T17:18:28.423Z,23.58
2023-05-24T17:21:06.687Z,21.80
2023-05-24T17:23:37.229Z,23.80
2023-05-24T17:26:05.653Z,21.05
2023-05-24T17:28:34.959Z,21.05
2023-05-24T17:31:02.706Z,22.33
2023-05-24T17:33:30.914Z,25.25
2023-05-24T17:36:00.875Z,27.75
2023-05-24T17:38:28.840Z,24.35
2023-05-24T17:40:59.017Z,24.40
2023-05-24T17:43:31.959Z,23.75
2023-05-24T17:46:06.807Z,25.90
2023-05-24T17:48:36.433Z,22.83
2023-05-24T17:51:06.171Z,26.15
2023-05-24T17:53:34.895Z,25.00
2023-05-24T17:56:03.677Z,22.80
2023-05-24T17:58:32.794Z,23.42
2023-05-24T18:00:59.999Z,21.77
2023-05-24T18:03:26.810Z,21.38
2023-05-24T18:05:53.875Z,27.10
2023-05-24T18:08:21.507Z,23.83
2023-05-24T18:10:48.620Z,23.60
2023-05-24T18:13:15.354Z,25.75
2023-05-24T18:15:42.909Z,22.45
2023-05-24T18:18:10.026Z,23.08
2023-05-24T18:20:37.232Z,24.90
2023-05-24T18:23:04.128Z,28.42
2023-05-24T18:25:31.100Z,23.85
2023-05-24T18:27:58.917Z,29.85
2023-05-24T18:30:26.021Z,24.98
2023-05-24T18:33:05.576Z,26.70
2023-05-24T18:35:35.221Z,27.48
2023-05-24T18:38:02.021Z,28.75
2023-05-24T18:40:29.037Z,24.55
2023-05-24T18:42:55.997Z,29.45
2023-05-24T18:45:23.095Z,27.42
2023-05-24T18:47:49.959Z,32.65
2023-05-24T18:50:17.107Z,24.65
2023-05-24T18:52:43.932Z,26.25
2023-05-24T18:55:11.018Z,29.80
2023-05-24T18:57:38.100Z,26.50
2023-05-24T19:00:07.366Z,27.45
2023-05-24T19:02:38.502Z,27.95
2023-05-24T19:05:09.613Z,26.48
2023-05-24T19:07:36.858Z,26.33
2023-05-24T19:10:04.512Z,25.35
2023-05-24T19:12:31.718Z,27.10
2023-05-24T19:14:59.371Z,30.30
2023-05-24T19:17:26.958Z,24.92
2023-05-24T19:19:54.708Z,25.88
2023-05-24T19:22:21.844Z,26.75
2023-05-24T19:24:48.945Z,23.85
2023-05-24T19:27:15.775Z,33.38
2023-05-24T19:29:42.908Z,29.02
2023-05-24T19:32:11.648Z,25.17
2023-05-24T19:34:42.242Z,34.88
2023-05-24T19:37:09.754Z,28.17
2023-05-24T19:39:37.555Z,36.03
2023-05-24T19:42:04.675Z,28.88
2023-05-24T19:44:31.656Z,28.83
2023-05-24T19:46:58.597Z,33.03
2023-05-24T19:49:25.789Z,29.50
2023-05-24T19:51:52.556Z,30.35
2023-05-24T19:54:19.788Z,29.77
2023-05-24T19:56:50.196Z,36.08
2023-05-24T19:59:18.306Z,31.70
2023-05-24T20:01:45.616Z,33.78
2023-05-24T20:04:13.316Z,36.30
2023-05-24T20:06:40.695Z,33.25
2023-05-24T20:09:08.499Z,32.00
2023-05-24T20:11:35.371Z,34.15
2023-05-24T20:14:02.653Z,27.27
2023-05-24T20:16:30.237Z,28.60
2023-05-24T20:18:57.712Z,34.33
2023-05-24T20:21:24.617Z,33.42
2023-05-24T20:23:57.599Z,37.25
2023-05-24T20:26:26.078Z,34.75
2023-05-24T20:28:53.335Z,34.80
2023-05-24T20:31:20.141Z,34.33
2023-05-24T20:33:49.024Z,38.08
2023-05-24T20:36:16.034Z,34.77
2023-05-24T20:38:43.170Z,32.15
2023-05-24T20:41:10.002Z,29.75
2023-05-24T20:43:37.026Z,33.90
2023-05-24T20:46:03.843Z,34.30
2023-05-24T20:48:31.085Z,41.50
2023-05-24T20:50:58.175Z,32.40
2023-05-24T20:53:25.458Z,43.40
2023-05-24T20:55:52.202Z,35.63
2023-05-24T20:58:19.227Z,39.70
2023-05-24T21:00:46.173Z,36.73
2023-05-24T21:03:13.506Z,35.45
2023-05-24T21:05:40.594Z,38.88
2023-05-24T21:08:07.712Z,34.65
2023-05-24T21:10:35.254Z,36.58
2023-05-24T21:13:02.372Z,32.88
2023-05-24T21:15:29.107Z,40.38
2023-05-24T21:17:56.200Z,37.58
2023-05-24T21:20:23.204Z,34.60
2023-05-24T21:22:50.426Z,35.80
2023-05-24T21:25:17.280Z,36.37
2023-05-24T21:27:44.274Z,35.77
2023-05-24T21:30:11.658Z,33.50
2023-05-24T21:32:38.878Z,36.50
2023-05-24T21:35:06.473Z,36.22
2023-05-24T21:37:33.632Z,37.95
2023-05-24T21:40:00.523Z,39.05
2023-05-24T21:42:27.582Z,39.83
2023-05-24T21:44:54.304Z,44.67
2023-05-24T21:47:21.595Z,42.53
2023-05-24T21:49:48.419Z,39.20
2023-05-24T21:52:15.464Z,41.90
2023-05-24T21:54:42.339Z,40.40
2023-05-24T21:57:09.319Z,38.92
2023-05-24T21:59:36.136Z,45.30
2023-05-24T22:02:03.301Z,39.33
2023-05-24T22:04:30.148Z,44.08
2023-05-24T22:06:57.200Z,43.53
2023-05-24T22:09:23.994Z,41.40
2023-05-24T22:11:50.994Z,44.17
2023-05-24T22:14:17.786Z,38.20
2023-05-24T22:16:44.875Z,35.33
2023-05-24T22:19:18.383Z,44.65
2023-05-24T22:21:50.340Z,36.40
2023-05-24T22:24:17.392Z,43.25
2023-05-24T22:26:46.709Z,38.05
2023-05-24T22:29:13.874Z,41.15
2023-05-24T22:31:41.586Z,38.50
2023-05-24T22:34:11.408Z,35.97
2023-05-24T22:36:38.973Z,43.05
2023-05-24T22:39:06.009Z,36.42
2023-05-24T22:41:33.228Z,38.97
2023-05-24T22:44:00.199Z,37.40
2023-05-24T22:46:27.442Z,35.85
2023-05-24T22:48:56.716Z,31.52
2023-05-24T22:51:24.110Z,36.63
2023-05-24T22:53:52.717Z,36.80
2023-05-24T22:56:20.792Z,39.10
2023-05-24T22:58:47.786Z,36.20
2023-05-24T23:01:17.714Z,39.25
2023-05-24T23:03:44.723Z,41.03
2023-05-24T23:06:12.037Z,34.97
2023-05-24T23:08:39.008Z,41.20
2023-05-24T23:11:10.352Z,34.03
2023-05-24T23:13:37.596Z,35.83
2023-05-24T23:16:05.548Z,37.60
2023-05-24T23:18:32.921Z,36.77
2023-05-24T23:21:02.974Z,39.87
2023-05-24T23:23:29.767Z,39.23
2023-05-24T23:25:56.818Z,34.03
2023-05-24T23:28:23.684Z,31.00
2023-05-24T23:30:50.741Z,32.90
2023-05-24T23:33:17.549Z,36.63
2023-05-24T23:35:45.129Z,45.10
2023-05-24T23:38:13.679Z,32.73
2023-05-24T23:40:40.831Z,34.17
2023-05-24T23:43:08.153Z,36.08
2023-05-24T23:45:35.586Z,34.95
2023-05-24T23:48:02.629Z,42.08
2023-05-24T23:50:33.166Z,33.95
2023-05-24T23:53:07.679Z,32.88
2023-05-24T23:55:34.706Z,35.05
2023-05-24T23:58:01.457Z,35.38
